sensor_id;sensor_type;location;lat;lon;timestamp;P1;durP1;ratioP1;P2;durP2;ratioP2
77872;SDS011;67068;52.116;4.440;2023-05-19T00:00:51;6.22;;;1.60;;
77872;SDS011;67068;52.116;4.440;2023-05-19T00:03:16;6.30;;;1.70;;
77872;SDS011;67068;52.116;4.440;2023-05-19T00:05:45;5.75;;;1.42;;
77872;SDS011;67068;52.116;4.440;2023-05-19T00:08:12;5.30;;;1.35;;
77872;SDS011;67068;52.116;4.440;2023-05-19T00:10:40;6.57;;;1.83;;
77872;SDS011;67068;52.116;4.440;2023-05-19T00:13:05;5.32;;;1.70;;
77872;SDS011;67068;52.116;4.440;2023-05-19T00:15:31;5.68;;;1.60;;
77872;SDS011;67068;52.116;4.440;2023-05-19T00:17:56;3.08;;;1.20;;
77872;SDS011;67068;52.116;4.440;2023-05-19T00:20:21;5.25;;;1.40;;
77872;SDS011;67068;52.116;4.440;2023-05-19T00:22:47;4.50;;;1.53;;
77872;SDS011;67068;52.116;4.440;2023-05-19T00:25:12;5.13;;;1.57;;
77872;SDS011;67068;52.116;4.440;2023-05-19T00:27:37;5.68;;;1.70;;
77872;SDS011;67068;52.116;4.440;2023-05-19T00:30:03;5.87;;;1.50;;
77872;SDS011;67068;52.116;4.440;2023-05-19T00:32:28;5.35;;;1.60;;
77872;SDS011;67068;52.116;4.440;2023-05-19T00:34:53;4.70;;;1.20;;
77872;SDS011;67068;52.116;4.440;2023-05-19T00:37:18;8.07;;;1.87;;
77872;SDS011;67068;52.116;4.440;2023-05-19T00:39:44;5.90;;;1.73;;
77872;SDS011;67068;52.116;4.440;2023-05-19T00:42:09;6.10;;;1.50;;
77872;SDS011;67068;52.116;4.440;2023-05-19T00:44:36;3.97;;;1.40;;
77872;SDS011;67068;52.116;4.440;2023-05-19T00:47:03;5.18;;;1.55;;
77872;SDS011;67068;52.116;4.440;2023-05-19T00:49:29;5.13;;;1.60;;
77872;SDS011;67068;52.116;4.440;2023-05-19T00:51:54;5.83;;;1.30;;
77872;SDS011;67068;52.116;4.440;2023-05-19T00:54:19;5.25;;;1.65;;
77872;SDS011;67068;52.116;4.440;2023-05-19T00:56:45;4.30;;;1.30;;
77872;SDS011;67068;52.116;4.440;2023-05-19T00:59:10;6.90;;;1.77;;
77872;SDS011;67068;52.116;4.440;2023-05-19T01:01:35;4.40;;;1.50;;
77872;SDS011;67068;52.116;4.440;2023-05-19T01:04:00;7.10;;;1.80;;
77872;SDS011;67068;52.116;4.440;2023-05-19T01:06:28;5.72;;;1.42;;
77872;SDS011;67068;52.116;4.440;2023-05-19T01:08:53;5.23;;;1.70;;
77872;SDS011;67068;52.116;4.440;2023-05-19T01:11:19;5.20;;;1.40;;
77872;SDS011;67068;52.116;4.440;2023-05-19T01:13:45;5.00;;;1.63;;
77872;SDS011;67068;52.116;4.440;2023-05-19T01:16:11;5.00;;;1.30;;
77872;SDS011;67068;52.116;4.440;2023-05-19T01:18:43;5.00;;;1.40;;
77872;SDS011;67068;52.116;4.440;2023-05-19T01:21:25;4.63;;;1.33;;
77872;SDS011;67068;52.116;4.440;2023-05-19T01:24:00;4.53;;;1.30;;
77872;SDS011;67068;52.116;4.440;2023-05-19T01:29:02;5.45;;;1.63;;
77872;SDS011;67068;52.116;4.440;2023-05-19T01:31:31;6.38;;;1.67;;
77872;SDS011;67068;52.116;4.440;2023-05-19T01:33:57;6.15;;;1.85;;
77872;SDS011;67068;52.116;4.440;2023-05-19T01:36:23;5.43;;;1.60;;
77872;SDS011;67068;52.116;4.440;2023-05-19T01:38:50;5.30;;;1.42;;
77872;SDS011;67068;52.116;4.440;2023-05-19T01:41:17;5.90;;;1.90;;
77872;SDS011;67068;52.116;4.440;2023-05-19T01:43:42;4.75;;;1.30;;
77872;SDS011;67068;52.116;4.440;2023-05-19T01:46:08;6.40;;;1.63;;
77872;SDS011;67068;52.116;4.440;2023-05-19T01:48:33;5.43;;;1.65;;
77872;SDS011;67068;52.116;4.440;2023-05-19T01:50:59;6.03;;;1.65;;
77872;SDS011;67068;52.116;4.440;2023-05-19T01:53:25;4.97;;;1.38;;
77872;SDS011;67068;52.116;4.440;2023-05-19T01:55:51;5.47;;;1.40;;
77872;SDS011;67068;52.116;4.440;2023-05-19T02:08:43;4.83;;;1.20;;
77872;SDS011;67068;52.116;4.440;2023-05-19T02:11:21;5.32;;;1.50;;
77872;SDS011;67068;52.116;4.440;2023-05-19T02:13:49;5.43;;;1.70;;
77872;SDS011;67068;52.116;4.440;2023-05-19T02:18:42;4.68;;;1.20;;
77872;SDS011;67068;52.116;4.440;2023-05-19T02:21:10;4.30;;;1.23;;
77872;SDS011;67068;52.116;4.440;2023-05-19T02:23:38;6.57;;;1.50;;
77872;SDS011;67068;52.116;4.440;2023-05-19T02:26:03;5.47;;;1.40;;
77872;SDS011;67068;52.116;4.440;2023-05-19T02:28:28;4.50;;;1.40;;
77872;SDS011;67068;52.116;4.440;2023-05-19T02:30:54;5.50;;;1.50;;
77872;SDS011;67068;52.116;4.440;2023-05-19T02:33:19;4.20;;;1.25;;
77872;SDS011;67068;52.116;4.440;2023-05-19T02:35:44;4.77;;;1.50;;
77872;SDS011;67068;52.116;4.440;2023-05-19T02:38:09;4.93;;;1.40;;
77872;SDS011;67068;52.116;4.440;2023-05-19T02:40:35;6.77;;;1.70;;
77872;SDS011;67068;52.116;4.440;2023-05-19T02:43:00;5.33;;;1.57;;
77872;SDS011;67068;52.116;4.440;2023-05-19T02:45:25;6.30;;;1.60;;
77872;SDS011;67068;52.116;4.440;2023-05-19T02:47:52;6.30;;;1.30;;
77872;SDS011;67068;52.116;4.440;2023-05-19T02:50:17;4.53;;;1.20;;
77872;SDS011;67068;52.116;4.440;2023-05-19T02:52:43;4.53;;;1.50;;
77872;SDS011;67068;52.116;4.440;2023-05-19T02:55:08;5.93;;;1.37;;
77872;SDS011;67068;52.116;4.440;2023-05-19T02:57:33;5.55;;;1.50;;
77872;SDS011;67068;52.116;4.440;2023-05-19T02:59:58;4.63;;;1.13;;
77872;SDS011;67068;52.116;4.440;2023-05-19T03:02:24;5.17;;;1.50;;
77872;SDS011;67068;52.116;4.440;2023-05-19T03:04:49;6.70;;;1.63;;
77872;SDS011;67068;52.116;4.440;2023-05-19T03:07:14;4.78;;;1.63;;
77872;SDS011;67068;52.116;4.440;2023-05-19T03:09:40;6.05;;;1.52;;
77872;SDS011;67068;52.116;4.440;2023-05-19T03:12:05;5.40;;;1.50;;
77872;SDS011;67068;52.116;4.440;2023-05-19T03:14:32;4.45;;;1.30;;
77872;SDS011;67068;52.116;4.440;2023-05-19T03:16:57;4.20;;;1.40;;
77872;SDS011;67068;52.116;4.440;2023-05-19T03:19:23;4.97;;;1.42;;
77872;SDS011;67068;52.116;4.440;2023-05-19T03:21:49;5.43;;;1.63;;
77872;SDS011;67068;52.116;4.440;2023-05-19T03:24:14;4.22;;;1.10;;
77872;SDS011;67068;52.116;4.440;2023-05-19T03:26:40;5.22;;;1.50;;
77872;SDS011;67068;52.116;4.440;2023-05-19T03:29:06;6.95;;;1.20;;
77872;SDS011;67068;52.116;4.440;2023-05-19T03:31:31;5.65;;;1.20;;
77872;SDS011;67068;52.116;4.440;2023-05-19T03:33:57;4.83;;;1.20;;
77872;SDS011;67068;52.116;4.440;2023-05-19T03:36:22;5.33;;;1.50;;
77872;SDS011;67068;52.116;4.440;2023-05-19T03:38:48;5.88;;;1.40;;
77872;SDS011;67068;52.116;4.440;2023-05-19T03:41:13;6.47;;;1.38;;
77872;SDS011;67068;52.116;4.440;2023-05-19T03:43:38;6.55;;;1.50;;
77872;SDS011;67068;52.116;4.440;2023-05-19T03:46:04;3.80;;;1.30;;
77872;SDS011;67068;52.116;4.440;2023-05-19T03:48:29;4.50;;;1.20;;
77872;SDS011;67068;52.116;4.440;2023-05-19T03:50:54;3.40;;;1.30;;
77872;SDS011;67068;52.116;4.440;2023-05-19T03:53:19;4.27;;;1.37;;
77872;SDS011;67068;52.116;4.440;2023-05-19T03:55:45;4.85;;;1.33;;
77872;SDS011;67068;52.116;4.440;2023-05-19T03:58:10;5.55;;;1.40;;
77872;SDS011;67068;52.116;4.440;2023-05-19T04:00:38;4.55;;;1.58;;
77872;SDS011;67068;52.116;4.440;2023-05-19T04:03:03;4.80;;;1.43;;
77872;SDS011;67068;52.116;4.440;2023-05-19T04:05:28;4.90;;;1.30;;
77872;SDS011;67068;52.116;4.440;2023-05-19T04:07:54;5.38;;;1.55;;
77872;SDS011;67068;52.116;4.440;2023-05-19T04:10:19;3.80;;;1.43;;
77872;SDS011;67068;52.116;4.440;2023-05-19T04:12:44;6.65;;;1.30;;
77872;SDS011;67068;52.116;4.440;2023-05-19T04:15:11;5.70;;;1.50;;
77872;SDS011;67068;52.116;4.440;2023-05-19T04:17:36;4.70;;;1.47;;
77872;SDS011;67068;52.116;4.440;2023-05-19T04:20:02;4.65;;;1.83;;
77872;SDS011;67068;52.116;4.440;2023-05-19T04:22:28;5.55;;;1.50;;
77872;SDS011;67068;52.116;4.440;2023-05-19T04:24:53;7.07;;;2.13;;
77872;SDS011;67068;52.116;4.440;2023-05-19T04:27:20;5.15;;;1.30;;
77872;SDS011;67068;52.116;4.440;2023-05-19T04:29:46;6.57;;;1.50;;
77872;SDS011;67068;52.116;4.440;2023-05-19T04:32:12;5.32;;;1.55;;
77872;SDS011;67068;52.116;4.440;2023-05-19T04:34:41;4.63;;;1.58;;
77872;SDS011;67068;52.116;4.440;2023-05-19T04:37:09;6.32;;;1.60;;
77872;SDS011;67068;52.116;4.440;2023-05-19T04:39:35;4.93;;;1.30;;
77872;SDS011;67068;52.116;4.440;2023-05-19T04:42:03;4.43;;;1.33;;
77872;SDS011;67068;52.116;4.440;2023-05-19T04:44:28;5.20;;;1.23;;
77872;SDS011;67068;52.116;4.440;2023-05-19T04:46:54;6.38;;;2.00;;
77872;SDS011;67068;52.116;4.440;2023-05-19T04:49:22;5.07;;;1.30;;
77872;SDS011;67068;52.116;4.440;2023-05-19T04:51:48;5.72;;;1.88;;
77872;SDS011;67068;52.116;4.440;2023-05-19T04:54:14;5.78;;;1.40;;
77872;SDS011;67068;52.116;4.440;2023-05-19T04:56:39;6.35;;;1.50;;
77872;SDS011;67068;52.116;4.440;2023-05-19T04:59:06;4.63;;;1.25;;
77872;SDS011;67068;52.116;4.440;2023-05-19T05:01:31;4.05;;;1.20;;
77872;SDS011;67068;52.116;4.440;2023-05-19T05:03:56;5.65;;;1.45;;
77872;SDS011;67068;52.116;4.440;2023-05-19T05:06:23;6.30;;;1.60;;
77872;SDS011;67068;52.116;4.440;2023-05-19T05:08:48;5.78;;;1.75;;
77872;SDS011;67068;52.116;4.440;2023-05-19T05:11:13;6.27;;;1.80;;
77872;SDS011;67068;52.116;4.440;2023-05-19T05:13:39;5.90;;;1.27;;
77872;SDS011;67068;52.116;4.440;2023-05-19T05:16:04;5.72;;;1.40;;
77872;SDS011;67068;52.116;4.440;2023-05-19T05:18:30;4.72;;;1.38;;
77872;SDS011;67068;52.116;4.440;2023-05-19T05:20:56;4.40;;;1.20;;
77872;SDS011;67068;52.116;4.440;2023-05-19T05:23:21;3.65;;;1.10;;
77872;SDS011;67068;52.116;4.440;2023-05-19T05:25:46;4.55;;;1.48;;
77872;SDS011;67068;52.116;4.440;2023-05-19T05:28:12;3.78;;;1.30;;
77872;SDS011;67068;52.116;4.440;2023-05-19T05:30:37;4.60;;;1.40;;
77872;SDS011;67068;52.116;4.440;2023-05-19T05:33:02;4.85;;;1.50;;
77872;SDS011;67068;52.116;4.440;2023-05-19T05:35:28;6.50;;;1.50;;
77872;SDS011;67068;52.116;4.440;2023-05-19T05:37:53;5.55;;;1.58;;
77872;SDS011;67068;52.116;4.440;2023-05-19T05:40:18;6.90;;;1.33;;
77872;SDS011;67068;52.116;4.440;2023-05-19T05:42:44;4.57;;;1.48;;
77872;SDS011;67068;52.116;4.440;2023-05-19T05:45:09;5.88;;;1.40;;
77872;SDS011;67068;52.116;4.440;2023-05-19T05:47:35;5.05;;;1.20;;
77872;SDS011;67068;52.116;4.440;2023-05-19T05:50:07;5.80;;;1.50;;
77872;SDS011;67068;52.116;4.440;2023-05-19T05:52:32;5.93;;;1.40;;
77872;SDS011;67068;52.116;4.440;2023-05-19T05:54:59;4.13;;;1.30;;
77872;SDS011;67068;52.116;4.440;2023-05-19T05:57:24;4.07;;;1.38;;
77872;SDS011;67068;52.116;4.440;2023-05-19T05:59:50;5.90;;;1.17;;
77872;SDS011;67068;52.116;4.440;2023-05-19T06:02:16;4.30;;;1.27;;
77872;SDS011;67068;52.116;4.440;2023-05-19T06:04:41;5.25;;;1.45;;
77872;SDS011;67068;52.116;4.440;2023-05-19T06:07:07;3.80;;;1.35;;
77872;SDS011;67068;52.116;4.440;2023-05-19T06:09:33;4.15;;;1.40;;
77872;SDS011;67068;52.116;4.440;2023-05-19T06:11:58;3.73;;;1.30;;
77872;SDS011;67068;52.116;4.440;2023-05-19T06:14:24;5.47;;;1.23;;
77872;SDS011;67068;52.116;4.440;2023-05-19T06:16:49;5.00;;;1.60;;
77872;SDS011;67068;52.116;4.440;2023-05-19T06:19:14;5.10;;;1.40;;
77872;SDS011;67068;52.116;4.440;2023-05-19T06:21:40;4.78;;;1.38;;
77872;SDS011;67068;52.116;4.440;2023-05-19T06:24:07;4.35;;;1.27;;
77872;SDS011;67068;52.116;4.440;2023-05-19T06:26:32;6.20;;;1.60;;
77872;SDS011;67068;52.116;4.440;2023-05-19T06:28:57;4.73;;;1.30;;
77872;SDS011;67068;52.116;4.440;2023-05-19T06:31:22;4.23;;;1.40;;
77872;SDS011;67068;52.116;4.440;2023-05-19T06:33:50;5.00;;;1.30;;
77872;SDS011;67068;52.116;4.440;2023-05-19T06:36:15;3.50;;;1.13;;
77872;SDS011;67068;52.116;4.440;2023-05-19T06:38:40;4.47;;;1.20;;
77872;SDS011;67068;52.116;4.440;2023-05-19T06:41:06;5.27;;;1.33;;
77872;SDS011;67068;52.116;4.440;2023-05-19T06:43:31;3.27;;;1.20;;
77872;SDS011;67068;52.116;4.440;2023-05-19T06:45:56;5.37;;;1.50;;
77872;SDS011;67068;52.116;4.440;2023-05-19T06:48:21;5.70;;;1.40;;
77872;SDS011;67068;52.116;4.440;2023-05-19T06:50:46;3.40;;;1.33;;
77872;SDS011;67068;52.116;4.440;2023-05-19T06:53:12;7.07;;;1.70;;
77872;SDS011;67068;52.116;4.440;2023-05-19T06:55:37;4.13;;;1.30;;
77872;SDS011;67068;52.116;4.440;2023-05-19T06:58:02;6.63;;;1.67;;
77872;SDS011;67068;52.116;4.440;2023-05-19T07:00:27;4.63;;;1.33;;
77872;SDS011;67068;52.116;4.440;2023-05-19T07:02:52;4.97;;;1.30;;
77872;SDS011;67068;52.116;4.440;2023-05-19T07:05:18;6.27;;;1.50;;
77872;SDS011;67068;52.116;4.440;2023-05-19T07:07:43;6.57;;;1.30;;
77872;SDS011;67068;52.116;4.440;2023-05-19T07:10:08;4.73;;;1.20;;
77872;SDS011;67068;52.116;4.440;2023-05-19T07:12:34;7.25;;;1.80;;
77872;SDS011;67068;52.116;4.440;2023-05-19T07:14:59;6.38;;;1.45;;
77872;SDS011;67068;52.116;4.440;2023-05-19T07:17:25;7.35;;;1.38;;
77872;SDS011;67068;52.116;4.440;2023-05-19T07:19:50;4.80;;;1.23;;
77872;SDS011;67068;52.116;4.440;2023-05-19T07:22:15;5.77;;;1.57;;
77872;SDS011;67068;52.116;4.440;2023-05-19T07:24:41;5.32;;;1.40;;
77872;SDS011;67068;52.116;4.440;2023-05-19T07:27:06;6.37;;;1.80;;
77872;SDS011;67068;52.116;4.440;2023-05-19T07:29:31;7.30;;;1.40;;
77872;SDS011;67068;52.116;4.440;2023-05-19T07:31:56;6.27;;;1.33;;
77872;SDS011;67068;52.116;4.440;2023-05-19T07:34:22;7.23;;;1.50;;
77872;SDS011;67068;52.116;4.440;2023-05-19T07:36:47;6.80;;;1.65;;
77872;SDS011;67068;52.116;4.440;2023-05-19T07:39:12;4.23;;;1.30;;
77872;SDS011;67068;52.116;4.440;2023-05-19T07:41:38;8.37;;;1.90;;
77872;SDS011;67068;52.116;4.440;2023-05-19T07:44:03;8.63;;;1.80;;
77872;SDS011;67068;52.116;4.440;2023-05-19T07:46:32;6.68;;;1.83;;
77872;SDS011;67068;52.116;4.440;2023-05-19T07:48:57;5.43;;;1.58;;
77872;SDS011;67068;52.116;4.440;2023-05-19T07:51:22;7.67;;;1.50;;
77872;SDS011;67068;52.116;4.440;2023-05-19T07:53:47;6.10;;;1.67;;
77872;SDS011;67068;52.116;4.440;2023-05-19T07:56:12;5.87;;;1.63;;
77872;SDS011;67068;52.116;4.440;2023-05-19T07:58:38;7.63;;;1.97;;
77872;SDS011;67068;52.116;4.440;2023-05-19T08:01:03;8.63;;;1.77;;
77872;SDS011;67068;52.116;4.440;2023-05-19T08:03:28;5.20;;;1.20;;
77872;SDS011;67068;52.116;4.440;2023-05-19T08:05:54;6.25;;;1.60;;
77872;SDS011;67068;52.116;4.440;2023-05-19T08:08:19;6.80;;;1.57;;
77872;SDS011;67068;52.116;4.440;2023-05-19T08:10:45;4.72;;;1.55;;
77872;SDS011;67068;52.116;4.440;2023-05-19T08:13:11;5.70;;;1.60;;
77872;SDS011;67068;52.116;4.440;2023-05-19T08:15:36;8.10;;;1.70;;
77872;SDS011;67068;52.116;4.440;2023-05-19T08:18:01;8.15;;;1.60;;
77872;SDS011;67068;52.116;4.440;2023-05-19T08:20:27;5.28;;;1.67;;
77872;SDS011;67068;52.116;4.440;2023-05-19T08:22:52;5.67;;;1.70;;
77872;SDS011;67068;52.116;4.440;2023-05-19T08:25:17;6.13;;;1.50;;
77872;SDS011;67068;52.116;4.440;2023-05-19T08:27:43;5.78;;;1.60;;
77872;SDS011;67068;52.116;4.440;2023-05-19T08:30:08;8.67;;;1.93;;
77872;SDS011;67068;52.116;4.440;2023-05-19T08:32:34;6.75;;;1.70;;
77872;SDS011;67068;52.116;4.440;2023-05-19T08:34:59;5.73;;;1.40;;
77872;SDS011;67068;52.116;4.440;2023-05-19T08:37:24;5.13;;;1.70;;
77872;SDS011;67068;52.116;4.440;2023-05-19T08:39:50;6.30;;;1.87;;
77872;SDS011;67068;52.116;4.440;2023-05-19T08:42:15;6.70;;;1.80;;
77872;SDS011;67068;52.116;4.440;2023-05-19T08:44:40;5.87;;;1.60;;
77872;SDS011;67068;52.116;4.440;2023-05-19T08:47:07;6.00;;;1.50;;
77872;SDS011;67068;52.116;4.440;2023-05-19T08:49:41;5.53;;;1.40;;
77872;SDS011;67068;52.116;4.440;2023-05-19T08:54:44;5.90;;;1.53;;
77872;SDS011;67068;52.116;4.440;2023-05-19T08:57:11;6.88;;;1.48;;
77872;SDS011;67068;52.116;4.440;2023-05-19T08:59:36;7.40;;;1.70;;
77872;SDS011;67068;52.116;4.440;2023-05-19T09:02:02;5.90;;;1.67;;
77872;SDS011;67068;52.116;4.440;2023-05-19T09:04:27;4.70;;;1.20;;
77872;SDS011;67068;52.116;4.440;2023-05-19T09:06:53;5.72;;;1.70;;
77872;SDS011;67068;52.116;4.440;2023-05-19T09:09:18;6.87;;;1.50;;
77872;SDS011;67068;52.116;4.440;2023-05-19T09:11:47;5.60;;;1.75;;
77872;SDS011;67068;52.116;4.440;2023-05-19T09:14:12;6.15;;;1.80;;
77872;SDS011;67068;52.116;4.440;2023-05-19T09:16:37;5.37;;;1.73;;
77872;SDS011;67068;52.116;4.440;2023-05-19T09:19:03;5.25;;;1.83;;
77872;SDS011;67068;52.116;4.440;2023-05-19T09:21:28;6.10;;;1.65;;
77872;SDS011;67068;52.116;4.440;2023-05-19T09:28:48;6.13;;;1.58;;
77872;SDS011;67068;52.116;4.440;2023-05-19T09:31:13;6.03;;;1.70;;
77872;SDS011;67068;52.116;4.440;2023-05-19T09:33:40;5.43;;;1.60;;
77872;SDS011;67068;52.116;4.440;2023-05-19T09:36:08;6.15;;;1.65;;
77872;SDS011;67068;52.116;4.440;2023-05-19T09:38:35;5.88;;;1.50;;
77872;SDS011;67068;52.116;4.440;2023-05-19T09:41:01;5.88;;;1.48;;
77872;SDS011;67068;52.116;4.440;2023-05-19T09:43:29;5.10;;;1.58;;
77872;SDS011;67068;52.116;4.440;2023-05-19T09:48:25;5.47;;;1.50;;
77872;SDS011;67068;52.116;4.440;2023-05-19T09:50:50;5.60;;;1.50;;
77872;SDS011;67068;52.116;4.440;2023-05-19T09:53:17;4.53;;;1.10;;
77872;SDS011;67068;52.116;4.440;2023-05-19T09:55:42;5.65;;;1.55;;
77872;SDS011;67068;52.116;4.440;2023-05-19T09:58:08;5.77;;;1.40;;
77872;SDS011;67068;52.116;4.440;2023-05-19T10:00:33;4.28;;;1.50;;
77872;SDS011;67068;52.116;4.440;2023-05-19T10:02:59;5.30;;;1.20;;
77872;SDS011;67068;52.116;4.440;2023-05-19T10:05:25;6.85;;;1.80;;
77872;SDS011;67068;52.116;4.440;2023-05-19T10:07:52;6.47;;;2.00;;
77872;SDS011;67068;52.116;4.440;2023-05-19T10:10:18;5.78;;;1.85;;
77872;SDS011;67068;52.116;4.440;2023-05-19T10:12:45;4.78;;;1.60;;
77872;SDS011;67068;52.116;4.440;2023-05-19T10:15:17;21.85;;;15.15;;
77872;SDS011;67068;52.116;4.440;2023-05-19T10:17:42;12.13;;;3.88;;
77872;SDS011;67068;52.116;4.440;2023-05-19T10:20:08;13.38;;;5.55;;
77872;SDS011;67068;52.116;4.440;2023-05-19T10:22:35;13.43;;;5.82;;
77872;SDS011;67068;52.116;4.440;2023-05-19T10:25:00;12.65;;;5.13;;
77872;SDS011;67068;52.116;4.440;2023-05-19T10:27:25;10.48;;;4.00;;
77872;SDS011;67068;52.116;4.440;2023-05-19T10:29:52;10.90;;;4.30;;
77872;SDS011;67068;52.116;4.440;2023-05-19T10:32:18;12.23;;;4.57;;
77872;SDS011;67068;52.116;4.440;2023-05-19T10:39:52;10.85;;;3.55;;
77872;SDS011;67068;52.116;4.440;2023-05-19T10:42:32;11.82;;;3.65;;
77872;SDS011;67068;52.116;4.440;2023-05-19T10:47:25;11.93;;;3.97;;
77872;SDS011;67068;52.116;4.440;2023-05-19T10:49:53;10.80;;;3.30;;
77872;SDS011;67068;52.116;4.440;2023-05-19T10:52:20;12.68;;;4.07;;
77872;SDS011;67068;52.116;4.440;2023-05-19T10:54:51;9.05;;;2.90;;
77872;SDS011;67068;52.116;4.440;2023-05-19T10:57:18;10.38;;;3.33;;
77872;SDS011;67068;52.116;4.440;2023-05-19T10:59:44;8.45;;;2.78;;
77872;SDS011;67068;52.116;4.440;2023-05-19T11:02:09;10.45;;;2.92;;
77872;SDS011;67068;52.116;4.440;2023-05-19T11:04:39;9.65;;;3.05;;
77872;SDS011;67068;52.116;4.440;2023-05-19T11:07:13;12.63;;;3.30;;
77872;SDS011;67068;52.116;4.440;2023-05-19T11:09:39;8.63;;;2.53;;
77872;SDS011;67068;52.116;4.440;2023-05-19T11:12:04;12.13;;;3.03;;
77872;SDS011;67068;52.116;4.440;2023-05-19T11:14:30;9.80;;;2.42;;
77872;SDS011;67068;52.116;4.440;2023-05-19T11:16:56;11.90;;;2.97;;
77872;SDS011;67068;52.116;4.440;2023-05-19T11:19:29;10.35;;;2.83;;
77872;SDS011;67068;52.116;4.440;2023-05-19T11:21:54;7.88;;;2.50;;
77872;SDS011;67068;52.116;4.440;2023-05-19T11:27:16;12.25;;;3.03;;
77872;SDS011;67068;52.116;4.440;2023-05-19T11:29:42;8.35;;;2.30;;
77872;SDS011;67068;52.116;4.440;2023-05-19T11:32:07;9.30;;;2.20;;
77872;SDS011;67068;52.116;4.440;2023-05-19T11:34:33;9.27;;;2.17;;
77872;SDS011;67068;52.116;4.440;2023-05-19T11:36:59;8.48;;;2.20;;
77872;SDS011;67068;52.116;4.440;2023-05-19T11:39:25;7.22;;;2.22;;
77872;SDS011;67068;52.116;4.440;2023-05-19T11:41:51;8.70;;;2.30;;
77872;SDS011;67068;52.116;4.440;2023-05-19T11:44:19;7.53;;;2.28;;
77872;SDS011;67068;52.116;4.440;2023-05-19T11:46:44;8.50;;;2.80;;
77872;SDS011;67068;52.116;4.440;2023-05-19T11:49:09;12.07;;;2.43;;
77872;SDS011;67068;52.116;4.440;2023-05-19T11:51:35;9.50;;;2.75;;
77872;SDS011;67068;52.116;4.440;2023-05-19T11:54:01;8.70;;;2.10;;
77872;SDS011;67068;52.116;4.440;2023-05-19T11:56:38;10.15;;;2.28;;
77872;SDS011;67068;52.116;4.440;2023-05-19T11:59:03;11.32;;;2.78;;
77872;SDS011;67068;52.116;4.440;2023-05-19T12:01:28;9.13;;;2.10;;
77872;SDS011;67068;52.116;4.440;2023-05-19T12:03:55;8.73;;;2.47;;
77872;SDS011;67068;52.116;4.440;2023-05-19T12:06:21;9.23;;;2.10;;
77872;SDS011;67068;52.116;4.440;2023-05-19T12:08:46;7.40;;;2.20;;
77872;SDS011;67068;52.116;4.440;2023-05-19T12:11:12;9.87;;;2.60;;
77872;SDS011;67068;52.116;4.440;2023-05-19T12:13:38;11.52;;;2.35;;
77872;SDS011;67068;52.116;4.440;2023-05-19T12:16:03;8.57;;;2.50;;
77872;SDS011;67068;52.116;4.440;2023-05-19T12:18:28;9.32;;;2.58;;
77872;SDS011;67068;52.116;4.440;2023-05-19T12:20:55;9.85;;;2.72;;
77872;SDS011;67068;52.116;4.440;2023-05-19T12:23:20;10.77;;;2.73;;
77872;SDS011;67068;52.116;4.440;2023-05-19T12:25:46;8.23;;;2.53;;
77872;SDS011;67068;52.116;4.440;2023-05-19T12:28:11;9.10;;;2.85;;
77872;SDS011;67068;52.116;4.440;2023-05-19T12:30:36;7.67;;;2.10;;
77872;SDS011;67068;52.116;4.440;2023-05-19T12:33:01;8.67;;;2.53;;
77872;SDS011;67068;52.116;4.440;2023-05-19T12:35:28;9.25;;;2.25;;
77872;SDS011;67068;52.116;4.440;2023-05-19T12:37:53;8.00;;;2.13;;
77872;SDS011;67068;52.116;4.440;2023-05-19T12:40:18;6.50;;;2.42;;
77872;SDS011;67068;52.116;4.440;2023-05-19T12:42:44;10.17;;;2.50;;
77872;SDS011;67068;52.116;4.440;2023-05-19T12:45:09;7.83;;;2.13;;
77872;SDS011;67068;52.116;4.440;2023-05-19T12:47:34;9.30;;;2.20;;
77872;SDS011;67068;52.116;4.440;2023-05-19T12:52:26;7.43;;;2.23;;
77872;SDS011;67068;52.116;4.440;2023-05-19T12:57:26;8.18;;;2.20;;
77872;SDS011;67068;52.116;4.440;2023-05-19T12:59:51;10.63;;;2.40;;
77872;SDS011;67068;52.116;4.440;2023-05-19T13:02:17;9.67;;;2.33;;
77872;SDS011;67068;52.116;4.440;2023-05-19T13:04:42;8.60;;;2.47;;
77872;SDS011;67068;52.116;4.440;2023-05-19T13:07:08;9.65;;;2.45;;
77872;SDS011;67068;52.116;4.440;2023-05-19T13:09:33;9.07;;;2.47;;
77872;SDS011;67068;52.116;4.440;2023-05-19T13:12:00;7.82;;;2.20;;
77872;SDS011;67068;52.116;4.440;2023-05-19T13:14:25;8.83;;;2.27;;
77872;SDS011;67068;52.116;4.440;2023-05-19T13:16:50;8.50;;;2.17;;
77872;SDS011;67068;52.116;4.440;2023-05-19T13:19:16;8.83;;;2.63;;
77872;SDS011;67068;52.116;4.440;2023-05-19T13:21:42;8.15;;;2.10;;
77872;SDS011;67068;52.116;4.440;2023-05-19T13:24:08;9.20;;;2.10;;
77872;SDS011;67068;52.116;4.440;2023-05-19T13:26:33;8.53;;;2.10;;
77872;SDS011;67068;52.116;4.440;2023-05-19T13:28:59;6.88;;;1.90;;
77872;SDS011;67068;52.116;4.440;2023-05-19T13:31:24;7.40;;;2.05;;
77872;SDS011;67068;52.116;4.440;2023-05-19T13:33:49;7.07;;;2.00;;
77872;SDS011;67068;52.116;4.440;2023-05-19T13:36:14;7.73;;;2.47;;
77872;SDS011;67068;52.116;4.440;2023-05-19T13:38:40;9.50;;;2.00;;
77872;SDS011;67068;52.116;4.440;2023-05-19T13:41:05;9.45;;;2.55;;
77872;SDS011;67068;52.116;4.440;2023-05-19T13:43:31;8.18;;;2.40;;
77872;SDS011;67068;52.116;4.440;2023-05-19T13:45:56;8.05;;;2.40;;
77872;SDS011;67068;52.116;4.440;2023-05-19T13:48:22;8.87;;;2.43;;
77872;SDS011;67068;52.116;4.440;2023-05-19T13:50:47;11.63;;;2.60;;
77872;SDS011;67068;52.116;4.440;2023-05-19T13:53:12;11.35;;;2.78;;
77872;SDS011;67068;52.116;4.440;2023-05-19T13:55:37;8.63;;;2.23;;
77872;SDS011;67068;52.116;4.440;2023-05-19T13:58:03;8.70;;;2.87;;
77872;SDS011;67068;52.116;4.440;2023-05-19T14:00:28;8.67;;;2.60;;
77872;SDS011;67068;52.116;4.440;2023-05-19T14:02:54;8.63;;;2.30;;
77872;SDS011;67068;52.116;4.440;2023-05-19T14:05:19;10.03;;;2.67;;
77872;SDS011;67068;52.116;4.440;2023-05-19T14:07:45;8.37;;;2.07;;
77872;SDS011;67068;52.116;4.440;2023-05-19T14:10:10;7.07;;;2.17;;
77872;SDS011;67068;52.116;4.440;2023-05-19T14:12:35;6.80;;;2.20;;
77872;SDS011;67068;52.116;4.440;2023-05-19T14:15:01;9.67;;;2.20;;
77872;SDS011;67068;52.116;4.440;2023-05-19T14:17:26;8.40;;;2.17;;
77872;SDS011;67068;52.116;4.440;2023-05-19T14:19:52;8.77;;;2.58;;
77872;SDS011;67068;52.116;4.440;2023-05-19T14:22:17;8.83;;;2.30;;
77872;SDS011;67068;52.116;4.440;2023-05-19T14:24:43;11.20;;;2.53;;
77872;SDS011;67068;52.116;4.440;2023-05-19T14:27:08;10.40;;;2.90;;
77872;SDS011;67068;52.116;4.440;2023-05-19T14:29:34;10.13;;;2.07;;
77872;SDS011;67068;52.116;4.440;2023-05-19T14:31:59;8.93;;;2.70;;
77872;SDS011;67068;52.116;4.440;2023-05-19T14:34:24;7.82;;;1.75;;
77872;SDS011;67068;52.116;4.440;2023-05-19T14:36:49;10.43;;;2.50;;
77872;SDS011;67068;52.116;4.440;2023-05-19T14:39:15;6.70;;;1.90;;
77872;SDS011;67068;52.116;4.440;2023-05-19T14:41:40;5.73;;;1.97;;
77872;SDS011;67068;52.116;4.440;2023-05-19T14:44:05;9.03;;;2.23;;
77872;SDS011;67068;52.116;4.440;2023-05-19T14:46:30;8.53;;;2.30;;
77872;SDS011;67068;52.116;4.440;2023-05-19T14:48:56;7.73;;;2.27;;
77872;SDS011;67068;52.116;4.440;2023-05-19T14:51:21;7.07;;;2.23;;
77872;SDS011;67068;52.116;4.440;2023-05-19T14:53:46;6.67;;;2.27;;
77872;SDS011;67068;52.116;4.440;2023-05-19T14:56:14;6.43;;;2.08;;
77872;SDS011;67068;52.116;4.440;2023-05-19T14:58:39;8.63;;;2.30;;
77872;SDS011;67068;52.116;4.440;2023-05-19T15:01:04;8.60;;;2.23;;
77872;SDS011;67068;52.116;4.440;2023-05-19T15:03:29;7.00;;;2.20;;
77872;SDS011;67068;52.116;4.440;2023-05-19T15:05:55;7.25;;;2.15;;
77872;SDS011;67068;52.116;4.440;2023-05-19T15:08:20;7.63;;;2.20;;
77872;SDS011;67068;52.116;4.440;2023-05-19T15:10:48;6.93;;;2.17;;
77872;SDS011;67068;52.116;4.440;2023-05-19T15:13:14;8.27;;;2.10;;
77872;SDS011;67068;52.116;4.440;2023-05-19T15:15:39;7.00;;;2.35;;
77872;SDS011;67068;52.116;4.440;2023-05-19T15:18:04;7.37;;;2.00;;